Time;durP1;ratioP1;P1;durP2;ratioP2;P2;SDS_P1;SDS_P2;PMS_P1;PMS_P2;Temp;Humidity;BMP_temperature;BMP_pressure;BME280_temperature;BME280_humidity;BME280_pressure;Samples;Min_cycle;Max_cycle;Signal;HPM_P1;HPM_P2
2022/06/15 00:01:50;;;;;;;24.53;4.90;;;;;;;;;;5031672;28;20465;-78
2022/06/15 00:04:18;;;;;;;13.50;3.43;;;;;;;;;;5032050;28;20527;-78
2022/06/15 00:06:46;;;;;;;13.90;4.17;;;;;;;;;;5032023;28;20440;-79
2022/06/15 00:09:14;;;;;;;15.70;4.33;;;;;;;;;;5031806;28;20455;-79
2022/06/15 00:11:42;;;;;;;15.87;4.43;;;;;;;;;;5031739;28;20487;-78
2022/06/15 00:14:12;;;;;;;16.40;4.23;;;;;;;;;;5031964;28;20441;-79
2022/06/15 00:16:39;;;;;;;16.40;4.40;;;;;;;;;;5031936;28;20445;-79
2022/06/15 00:19:07;;;;;;;14.57;3.73;;;;;;;;;;5031964;28;20476;-78
2022/06/15 00:21:36;;;;;;;19.33;5.60;;;;;;;;;;5031609;28;20440;-79
2022/06/15 00:24:03;;;;;;;13.67;4.50;;;;;;;;;;5031969;28;20974;-77
2022/06/15 00:26:31;;;;;;;20.43;6.53;;;;;;;;;;5032429;28;20448;-78
2022/06/15 00:28:59;;;;;;;15.23;4.50;;;;;;;;;;5031779;28;20970;-78
2022/06/15 00:31:26;;;;;;;19.83;4.50;;;;;;;;;;5032118;28;20452;-79
2022/06/15 00:33:54;;;;;;;15.17;5.63;;;;;;;;;;5031423;28;20445;-76
2022/06/15 00:36:22;;;;;;;16.73;5.10;;;;;;;;;;5031717;28;20961;-79
2022/06/15 00:38:53;;;;;;;21.73;5.83;;;;;;;;;;5032263;28;20543;-79
2022/06/15 00:41:21;;;;;;;18.40;5.03;;;;;;;;;;5032030;28;20440;-79
2022/06/15 00:43:50;;;;;;;16.63;5.50;;;;;;;;;;5031537;28;20465;-79
2022/06/15 00:46:21;;;;;;;21.63;5.70;;;;;;;;;;5031638;28;20800;-78
2022/06/15 00:48:49;;;;;;;21.03;5.20;;;;;;;;;;5031636;28;20441;-78
2022/06/15 00:51:17;;;;;;;16.90;4.70;;;;;;;;;;5033228;28;20528;-78
2022/06/15 00:53:45;;;;;;;16.27;4.57;;;;;;;;;;5035219;28;20811;-79
2022/06/15 00:56:14;;;;;;;17.20;5.23;;;;;;;;;;5035387;28;20479;-79
2022/06/15 00:58:43;;;;;;;21.83;4.43;;;;;;;;;;5035388;28;20480;-79
2022/06/15 01:01:11;;;;;;;15.47;4.87;;;;;;;;;;5035209;28;20441;-78
2022/06/15 01:03:38;;;;;;;16.70;4.87;;;;;;;;;;5035339;28;20882;-79
2022/06/15 01:06:11;;;;;;;16.50;5.07;;;;;;;;;;5035432;28;20445;-79
2022/06/15 01:08:41;;;;;;;24.53;5.90;;;;;;;;;;5035391;28;20444;-79
2022/06/15 01:11:33;;;;;;;20.10;5.93;;;;;;;;;;5035307;28;20520;-79
2022/06/15 01:14:34;;;;;;;14.90;4.60;;;;;;;;;;5035365;28;20445;-79
2022/06/15 01:17:08;;;;;;;16.23;4.83;;;;;;;;;;4974628;28;20590;-79
2022/06/15 01:19:53;;;;;;;16.20;4.30;;;;;;;;;;4974142;28;20483;-79
2022/06/15 01:22:28;;;;;;;16.00;5.17;;;;;;;;;;5011584;28;20440;-79
2022/06/15 01:25:10;;;;;;;16.80;6.00;;;;;;;;;;5035080;28;20451;-77
2022/06/15 01:27:48;;;;;;;21.20;6.83;;;;;;;;;;5034689;28;20455;-79
2022/06/15 01:30:36;;;;;;;15.83;5.07;;;;;;;;;;5034979;28;20466;-77
2022/06/15 01:33:11;;;;;;;24.90;6.40;;;;;;;;;;5034802;28;20446;-78
2022/06/15 01:35:44;;;;;;;20.07;6.20;;;;;;;;;;5034770;28;20436;-78
2022/06/15 01:38:21;;;;;;;18.13;5.93;;;;;;;;;;5035058;28;20447;-79
2022/06/15 01:40:49;;;;;;;17.47;5.00;;;;;;;;;;5034803;28;20441;-79
2022/06/15 01:43:19;;;;;;;18.10;5.07;;;;;;;;;;5034826;28;20832;-78
2022/06/15 01:45:49;;;;;;;18.33;5.30;;;;;;;;;;5034561;28;20470;-79
2022/06/15 01:48:17;;;;;;;17.57;5.50;;;;;;;;;;5034921;28;20445;-78
2022/06/15 01:50:46;;;;;;;19.40;5.17;;;;;;;;;;5034576;28;20436;-79
2022/06/15 01:53:16;;;;;;;20.63;5.40;;;;;;;;;;5034355;28;20452;-80
2022/06/15 01:55:46;;;;;;;18.93;6.37;;;;;;;;;;5034111;28;20448;-79
2022/06/15 01:58:14;;;;;;;21.20;5.37;;;;;;;;;;5035144;28;20452;-79
2022/06/15 02:00:43;;;;;;;15.80;5.60;;;;;;;;;;5034418;28;20584;-79
2022/06/15 02:03:16;;;;;;;17.17;4.90;;;;;;;;;;5032919;28;20464;-79
2022/06/15 02:05:50;;;;;;;22.47;6.80;;;;;;;;;;5034197;28;20491;-79
2022/06/15 02:08:22;;;;;;;20.33;5.90;;;;;;;;;;5034481;28;20441;-79
2022/06/15 02:10:52;;;;;;;17.87;5.70;;;;;;;;;;5034219;28;21082;-80
2022/06/15 02:13:23;;;;;;;21.90;5.60;;;;;;;;;;5034254;28;20435;-79
2022/06/15 02:15:53;;;;;;;18.57;4.97;;;;;;;;;;5033808;28;20965;-80
2022/06/15 02:18:22;;;;;;;21.70;5.63;;;;;;;;;;5033988;28;20445;-80
2022/06/15 02:20:52;;;;;;;22.03;6.47;;;;;;;;;;5033963;28;20931;-78
2022/06/15 02:23:20;;;;;;;16.00;5.57;;;;;;;;;;5033853;28;20451;-77
2022/06/15 02:25:50;;;;;;;21.90;6.80;;;;;;;;;;5033914;28;20449;-78
2022/06/15 02:28:18;;;;;;;17.13;5.70;;;;;;;;;;5033804;28;20440;-78
2022/06/15 02:30:45;;;;;;;19.63;7.60;;;;;;;;;;5033763;28;20457;-79
2022/06/15 02:33:14;;;;;;;18.33;6.10;;;;;;;;;;5033718;28;20441;-79
2022/06/15 02:35:44;;;;;;;16.23;5.57;;;;;;;;;;5033533;28;20968;-79
2022/06/15 02:38:13;;;;;;;22.33;5.50;;;;;;;;;;5033766;28;20440;-78
2022/06/15 02:40:40;;;;;;;16.30;5.93;;;;;;;;;;5033521;28;20491;-79
2022/06/15 02:43:08;;;;;;;16.60;5.07;;;;;;;;;;5033414;28;20444;-78
2022/06/15 02:45:37;;;;;;;16.17;4.97;;;;;;;;;;5033188;28;20451;-80
2022/06/15 02:48:05;;;;;;;20.20;5.13;;;;;;;;;;5033349;28;20441;-80
2022/06/15 02:50:35;;;;;;;20.40;5.50;;;;;;;;;;5033411;28;20451;-78
2022/06/15 02:53:06;;;;;;;25.13;6.47;;;;;;;;;;5033382;28;20448;-79
2022/06/15 02:55:35;;;;;;;16.93;5.00;;;;;;;;;;5033243;28;20440;-78
2022/06/15 02:58:07;;;;;;;18.00;4.90;;;;;;;;;;5033211;28;20930;-80
2022/06/15 03:00:34;;;;;;;17.60;5.20;;;;;;;;;;5033180;28;20499;-79
2022/06/15 03:03:02;;;;;;;14.97;5.00;;;;;;;;;;5032896;28;20476;-79
2022/06/15 03:05:29;;;;;;;17.50;5.53;;;;;;;;;;5033175;28;20487;-80
2022/06/15 03:07:57;;;;;;;17.47;5.63;;;;;;;;;;5033051;28;20445;-79
2022/06/15 03:10:26;;;;;;;17.37;4.93;;;;;;;;;;5032929;28;20449;-79
2022/06/15 03:12:54;;;;;;;21.93;5.90;;;;;;;;;;5032865;28;21004;-80
2022/06/15 03:15:22;;;;;;;25.50;6.23;;;;;;;;;;5032849;28;20449;-80
2022/06/15 03:17:49;;;;;;;28.30;6.60;;;;;;;;;;5032612;28;20447;-79
2022/06/15 03:20:16;;;;;;;25.03;7.07;;;;;;;;;;5032869;28;20480;-79
2022/06/15 03:22:44;;;;;;;21.63;4.97;;;;;;;;;;5032660;28;20449;-79
2022/06/15 03:25:11;;;;;;;17.40;5.80;;;;;;;;;;5032836;28;20441;-78
2022/06/15 03:27:41;;;;;;;18.27;5.33;;;;;;;;;;5032698;28;20444;-79
2022/06/15 03:30:11;;;;;;;19.00;5.10;;;;;;;;;;5032611;28;20448;-80
2022/06/15 03:32:38;;;;;;;17.43;5.90;;;;;;;;;;5032738;28;20849;-79
2022/06/15 03:35:06;;;;;;;20.87;5.97;;;;;;;;;;5032524;28;20448;-80
2022/06/15 03:37:34;;;;;;;20.13;6.03;;;;;;;;;;5032549;28;20448;-80
2022/06/15 03:40:02;;;;;;;23.80;6.23;;;;;;;;;;5032591;28;20484;-80
2022/06/15 03:42:29;;;;;;;23.13;6.63;;;;;;;;;;5032490;28;20449;-79
2022/06/15 03:44:58;;;;;;;15.90;5.90;;;;;;;;;;5032292;28;20455;-79
2022/06/15 03:47:26;;;;;;;18.10;6.00;;;;;;;;;;5032386;28;20456;-79
2022/06/15 03:49:54;;;;;;;18.63;6.20;;;;;;;;;;5031960;28;20981;-79
2022/06/15 03:52:23;;;;;;;22.43;5.90;;;;;;;;;;5032458;28;20484;-79
2022/06/15 03:54:51;;;;;;;16.97;5.77;;;;;;;;;;5032219;28;20433;-79
2022/06/15 03:57:19;;;;;;;24.37;5.60;;;;;;;;;;5032025;28;20451;-78
2022/06/15 03:59:47;;;;;;;21.80;6.73;;;;;;;;;;5031784;28;21022;-79
2022/06/15 04:02:16;;;;;;;16.63;6.80;;;;;;;;;;5031617;28;20476;-79
2022/06/15 04:04:45;;;;;;;18.67;6.40;;;;;;;;;;5032027;28;20437;-79
2022/06/15 04:09:53;;;;;;;21.73;5.90;;;;;;;;;;5030922;28;20531;-77
2022/06/15 04:12:21;;;;;;;17.23;5.43;;;;;;;;;;5031084;28;20468;-78
2022/06/15 04:14:49;;;;;;;19.80;6.37;;;;;;;;;;5031215;28;20820;-77
2022/06/15 04:17:18;;;;;;;18.37;5.97;;;;;;;;;;5035126;28;20436;-76
2022/06/15 04:20:31;;;;;;;22.00;5.93;;;;;;;;;;5040478;28;20480;-76
2022/06/15 04:22:35;;;;;;;20.90;5.77;;;;;;;;;;5039528;28;20884;-82
2022/06/15 04:25:02;;;;;;;16.67;5.80;;;;;;;;;;5031633;28;20487;-75
2022/06/15 04:27:32;;;;;;;18.52;5.78;;;;;;;;;;5030488;28;20935;-75
2022/06/15 04:30:00;;;;;;;19.93;6.03;;;;;;;;;;5031292;28;20446;-80
2022/06/15 04:32:29;;;;;;;17.85;5.90;;;;;;;;;;5030999;28;20432;-81
2022/06/15 04:34:57;;;;;;;21.40;5.77;;;;;;;;;;5031763;28;20503;-83
2022/06/15 04:37:24;;;;;;;15.83;5.03;;;;;;;;;;5033327;28;20479;-86
2022/06/15 04:39:51;;;;;;;19.53;6.53;;;;;;;;;;5035916;28;20484;-83
2022/06/15 04:42:19;;;;;;;16.60;5.87;;;;;;;;;;5040093;28;20441;-82
2022/06/15 04:44:46;;;;;;;17.23;5.30;;;;;;;;;;5049155;28;20530;-80
2022/06/15 04:47:14;;;;;;;21.27;5.60;;;;;;;;;;5051615;28;20490;-82
2022/06/15 04:49:43;;;;;;;19.57;6.60;;;;;;;;;;5051102;28;20431;-82
2022/06/15 04:52:11;;;;;;;17.40;5.20;;;;;;;;;;5039753;28;20488;-81
2022/06/15 04:54:39;;;;;;;19.33;5.17;;;;;;;;;;5030021;28;20919;-83
2022/06/15 04:57:06;;;;;;;19.83;5.67;;;;;;;;;;5030359;28;20445;-81
2022/06/15 04:59:34;;;;;;;22.83;6.60;;;;;;;;;;5030268;28;20454;-81
2022/06/15 05:02:02;;;;;;;15.60;4.87;;;;;;;;;;5029358;28;20456;-81
2022/06/15 05:04:29;;;;;;;21.57;5.40;;;;;;;;;;5030309;28;20454;-81
2022/06/15 05:06:58;;;;;;;16.70;5.03;;;;;;;;;;5029655;28;20498;-81
2022/06/15 05:09:26;;;;;;;17.17;5.50;;;;;;;;;;5030327;28;20878;-80
2022/06/15 05:11:53;;;;;;;15.60;5.00;;;;;;;;;;5029105;28;20472;-82
2022/06/15 05:14:21;;;;;;;16.43;4.90;;;;;;;;;;5029042;28;20478;-79
2022/06/15 05:16:48;;;;;;;16.17;4.50;;;;;;;;;;5029498;28;20969;-81
2022/06/15 05:19:15;;;;;;;17.10;4.60;;;;;;;;;;5030195;28;20456;-81
2022/06/15 05:21:44;;;;;;;17.70;4.10;;;;;;;;;;5030473;28;20487;-82
2022/06/15 05:24:13;;;;;;;17.90;4.27;;;;;;;;;;5030711;28;20447;-81
2022/06/15 05:26:41;;;;;;;16.37;4.50;;;;;;;;;;5031462;28;20443;-82
2022/06/15 05:29:09;;;;;;;13.20;3.77;;;;;;;;;;5031541;28;20951;-81
2022/06/15 05:31:36;;;;;;;16.97;5.10;;;;;;;;;;5031006;28;20507;-82
2022/06/15 05:34:04;;;;;;;16.57;4.70;;;;;;;;;;5031164;28;20451;-81
2022/06/15 05:36:35;;;;;;;23.23;4.50;;;;;;;;;;5031430;28;20809;-81
2022/06/15 05:39:03;;;;;;;17.60;4.23;;;;;;;;;;5033940;28;20804;-81
2022/06/15 05:41:32;;;;;;;33.27;5.27;;;;;;;;;;5034989;28;20483;-82
2022/06/15 05:44:00;;;;;;;14.97;4.00;;;;;;;;;;5034689;28;20806;-80
2022/06/15 05:46:30;;;;;;;16.00;4.10;;;;;;;;;;5034636;28;20445;-82
2022/06/15 05:48:58;;;;;;;16.43;4.53;;;;;;;;;;5034970;28;20440;-82
2022/06/15 05:51:26;;;;;;;16.43;4.00;;;;;;;;;;5034497;28;20453;-82
2022/06/15 05:53:54;;;;;;;17.20;4.07;;;;;;;;;;5034455;28;20448;-78
2022/06/15 05:56:21;;;;;;;13.90;3.30;;;;;;;;;;5034464;28;20974;-81
2022/06/15 05:58:50;;;;;;;14.73;3.60;;;;;;;;;;5034408;28;20817;-80
2022/06/15 06:01:20;;;;;;;19.90;3.90;;;;;;;;;;5034344;28;20480;-82
2022/06/15 06:03:48;;;;;;;17.20;3.83;;;;;;;;;;5033899;28;20812;-81
2022/06/15 06:06:15;;;;;;;13.50;3.50;;;;;;;;;;5034183;28;20437;-80
2022/06/15 06:08:43;;;;;;;17.27;3.40;;;;;;;;;;5034520;28;20890;-79
2022/06/15 06:11:10;;;;;;;19.70;3.63;;;;;;;;;;5034194;28;20467;-80
2022/06/15 06:13:38;;;;;;;15.80;3.70;;;;;;;;;;5033768;28;20792;-79
2022/06/15 06:16:07;;;;;;;17.23;3.30;;;;;;;;;;5034050;28;20960;-80
2022/06/15 06:18:35;;;;;;;13.40;3.00;;;;;;;;;;5033978;28;20441;-79
2022/06/15 06:21:03;;;;;;;13.20;3.20;;;;;;;;;;5033972;28;21083;-80
2022/06/15 06:23:30;;;;;;;15.27;3.10;;;;;;;;;;5034216;28;20499;-77
2022/06/15 06:25:58;;;;;;;14.50;3.70;;;;;;;;;;5033801;28;20448;-79
2022/06/15 06:28:27;;;;;;;15.10;3.87;;;;;;;;;;5033753;28;20934;-81
2022/06/15 06:30:54;;;;;;;13.20;3.27;;;;;;;;;;5034213;28;20954;-81
2022/06/15 06:33:23;;;;;;;15.63;3.67;;;;;;;;;;5033890;28;20451;-78
2022/06/15 06:35:51;;;;;;;17.30;3.00;;;;;;;;;;5033626;28;20448;-80
2022/06/15 06:38:19;;;;;;;13.90;3.20;;;;;;;;;;5033735;28;20949;-78
2022/06/15 06:40:46;;;;;;;14.40;3.03;;;;;;;;;;5033361;28;20571;-80
2022/06/15 06:43:13;;;;;;;18.20;3.30;;;;;;;;;;5033466;28;20822;-79
2022/06/15 06:45:42;;;;;;;17.67;4.20;;;;;;;;;;5033400;28;20448;-78
2022/06/15 06:48:09;;;;;;;16.53;3.17;;;;;;;;;;5033476;28;20837;-79
2022/06/15 06:50:40;;;;;;;14.33;3.50;;;;;;;;;;5033408;28;20449;-79
2022/06/15 06:53:09;;;;;;;13.57;3.27;;;;;;;;;;5033518;28;20982;-79
2022/06/15 06:55:36;;;;;;;13.47;3.00;;;;;;;;;;5033089;28;20444;-80
2022/06/15 06:58:04;;;;;;;14.97;3.30;;;;;;;;;;5033952;28;20447;-79
2022/06/15 07:00:32;;;;;;;19.13;2.70;;;;;;;;;;5033196;28;20487;-78
2022/06/15 07:03:00;;;;;;;14.40;3.10;;;;;;;;;;5032865;28;20455;-81
2022/06/15 07:05:27;;;;;;;15.60;3.13;;;;;;;;;;5033166;28;20447;-79
2022/06/15 07:07:56;;;;;;;14.70;2.83;;;;;;;;;;5032864;28;20437;-80
2022/06/15 07:10:26;;;;;;;15.40;3.13;;;;;;;;;;5033049;28;20535;-78
2022/06/15 07:12:53;;;;;;;14.80;2.90;;;;;;;;;;5033327;28;20440;-79
2022/06/15 07:15:21;;;;;;;14.97;3.40;;;;;;;;;;5032919;28;20942;-80
2022/06/15 07:17:48;;;;;;;17.23;3.67;;;;;;;;;;5032623;28;20451;-80
2022/06/15 07:20:16;;;;;;;14.17;2.70;;;;;;;;;;5032682;28;20977;-79
2022/06/15 07:22:43;;;;;;;13.67;2.70;;;;;;;;;;5033070;28;20445;-81
2022/06/15 07:25:12;;;;;;;14.80;3.37;;;;;;;;;;5032836;28;20448;-80
2022/06/15 07:27:41;;;;;;;13.53;2.47;;;;;;;;;;5032550;28;20448;-79
2022/06/15 07:30:11;;;;;;;13.50;2.97;;;;;;;;;;5032676;28;20977;-79
2022/06/15 07:32:39;;;;;;;14.20;2.63;;;;;;;;;;5032633;28;20449;-79
2022/06/15 07:35:07;;;;;;;18.47;3.37;;;;;;;;;;5032979;28;20448;-79
2022/06/15 07:37:34;;;;;;;14.53;3.20;;;;;;;;;;5032693;28;20830;-80
2022/06/15 07:40:02;;;;;;;13.47;3.43;;;;;;;;;;5032740;28;20444;-79
2022/06/15 07:42:31;;;;;;;16.53;3.23;;;;;;;;;;5032304;28;21010;-79
2022/06/15 07:44:59;;;;;;;18.93;4.10;;;;;;;;;;5032345;28;20453;-78
2022/06/15 07:50:11;;;;;;;13.60;2.77;;;;;;;;;;5032654;28;20428;-80
2022/06/15 07:52:43;;;;;;;14.70;3.13;;;;;;;;;;5032225;28;20958;-81
2022/06/15 07:55:12;;;;;;;17.23;3.37;;;;;;;;;;5032582;28;20814;-80
2022/06/15 07:57:41;;;;;;;15.60;3.73;;;;;;;;;;5032151;28;20448;-79
2022/06/15 08:00:10;;;;;;;13.93;2.80;;;;;;;;;;5031465;28;20447;-79
2022/06/15 08:02:38;;;;;;;16.93;3.73;;;;;;;;;;5032010;28;20494;-79
2022/06/15 08:05:06;;;;;;;19.70;3.50;;;;;;;;;;5031288;28;20445;-79
2022/06/15 08:07:33;;;;;;;14.80;3.40;;;;;;;;;;5031779;28;20447;-77
2022/06/15 08:10:01;;;;;;;14.60;3.10;;;;;;;;;;5032268;28;20465;-79
2022/06/15 08:12:28;;;;;;;14.83;2.83;;;;;;;;;;5031896;28;20482;-79
2022/06/15 08:14:59;;;;;;;17.77;2.70;;;;;;;;;;5032170;28;20457;-79
2022/06/15 08:17:29;;;;;;;14.33;2.90;;;;;;;;;;5032317;28;20478;-79
2022/06/15 08:19:59;;;;;;;13.50;3.00;;;;;;;;;;5031974;28;20457;-78
2022/06/15 08:22:27;;;;;;;13.13;2.90;;;;;;;;;;5032032;28;20479;-80
2022/06/15 08:24:56;;;;;;;17.23;2.70;;;;;;;;;;5031834;28;20483;-78
2022/06/15 08:27:24;;;;;;;15.20;3.23;;;;;;;;;;5032120;28;20481;-77
2022/06/15 08:29:52;;;;;;;12.87;2.43;;;;;;;;;;5031782;28;20969;-78
2022/06/15 08:32:21;;;;;;;17.80;2.77;;;;;;;;;;5031832;28;20452;-78
2022/06/15 08:34:49;;;;;;;13.60;2.80;;;;;;;;;;5031863;28;20969;-78
2022/06/15 08:37:19;;;;;;;17.00;3.20;;;;;;;;;;5031774;28;20438;-76
2022/06/15 08:39:46;;;;;;;18.53;3.60;;;;;;;;;;5031483;28;20804;-77
2022/06/15 08:42:18;;;;;;;13.50;2.90;;;;;;;;;;5032012;28;20483;-78
2022/06/15 08:44:48;;;;;;;15.13;3.30;;;;;;;;;;5031961;28;20459;-77
2022/06/15 08:47:28;;;;;;;14.37;2.90;;;;;;;;;;5031963;28;20448;-77
2022/06/15 08:50:02;;;;;;;14.67;3.40;;;;;;;;;;5031572;28;20459;-77
2022/06/15 08:52:33;;;;;;;12.80;2.57;;;;;;;;;;5031662;28;20460;-80
2022/06/15 08:55:02;;;;;;;14.73;3.43;;;;;;;;;;5031685;28;20442;-78
2022/06/15 08:57:33;;;;;;;13.40;2.53;;;;;;;;;;5031883;28;20438;-80
2022/06/15 09:00:04;;;;;;;13.80;2.90;;;;;;;;;;5031636;28;20450;-80
2022/06/15 09:02:35;;;;;;;14.90;3.30;;;;;;;;;;5031602;28;20487;-77
2022/06/15 09:05:10;;;;;;;15.60;2.90;;;;;;;;;;5031874;28;20522;-78
2022/06/15 09:07:54;;;;;;;15.00;3.40;;;;;;;;;;5031375;28;20438;-76
2022/06/15 09:10:28;;;;;;;18.97;3.13;;;;;;;;;;5031487;28;20453;-78
2022/06/15 09:13:02;;;;;;;14.27;3.30;;;;;;;;;;5034186;28;20531;-79
2022/06/15 09:15:36;;;;;;;14.97;3.43;;;;;;;;;;5035467;28;20437;-80
2022/06/15 09:18:06;;;;;;;13.50;3.17;;;;;;;;;;5035212;28;20966;-77
2022/06/15 09:20:38;;;;;;;16.77;3.47;;;;;;;;;;5035033;28;20456;-78
2022/06/15 09:23:07;;;;;;;14.57;2.80;;;;;;;;;;5034969;28;20949;-77
2022/06/15 09:25:40;;;;;;;15.87;3.57;;;;;;;;;;5035153;28;20438;-78
2022/06/15 09:28:10;;;;;;;13.67;3.13;;;;;;;;;;5035106;28;20463;-78
2022/06/15 09:30:41;;;;;;;16.10;3.33;;;;;;;;;;5034861;28;20460;-77
2022/06/15 09:33:12;;;;;;;14.63;3.20;;;;;;;;;;5034985;28;20820;-78
2022/06/15 09:35:43;;;;;;;14.37;3.40;;;;;;;;;;5034592;28;20949;-79
2022/06/15 09:38:13;;;;;;;14.30;3.37;;;;;;;;;;5035005;28;20447;-79
2022/06/15 09:40:44;;;;;;;14.70;3.20;;;;;;;;;;5034707;28;20440;-80
2022/06/15 09:43:14;;;;;;;16.03;3.47;;;;;;;;;;5034862;28;20445;-80
2022/06/15 09:45:46;;;;;;;19.27;3.67;;;;;;;;;;5034596;28;20453;-80
2022/06/15 09:48:19;;;;;;;14.00;2.47;;;;;;;;;;5034558;28;20539;-78
2022/06/15 09:50:52;;;;;;;13.00;2.80;;;;;;;;;;5034687;28;20452;-80
2022/06/15 09:53:27;;;;;;;15.30;3.23;;;;;;;;;;5034516;28;20979;-78
2022/06/15 09:55:57;;;;;;;16.80;3.63;;;;;;;;;;5034344;28;20474;-80
2022/06/15 09:58:27;;;;;;;14.13;2.67;;;;;;;;;;5034635;28;20488;-78
2022/06/15 10:00:55;;;;;;;14.00;3.50;;;;;;;;;;5034605;28;20440;-78
2022/06/15 10:03:25;;;;;;;17.40;3.27;;;;;;;;;;5034104;28;20467;-79
2022/06/15 10:05:56;;;;;;;14.77;3.80;;;;;;;;;;5034167;28;20453;-79
2022/06/15 10:08:23;;;;;;;13.67;2.90;;;;;;;;;;5034457;28;20448;-79
2022/06/15 10:10:53;;;;;;;13.90;3.10;;;;;;;;;;5034405;28;20459;-79
2022/06/15 10:13:29;;;;;;;15.73;3.30;;;;;;;;;;5034186;28;20431;-79
2022/06/15 10:15:58;;;;;;;15.47;3.40;;;;;;;;;;5034123;28;20478;-78
2022/06/15 10:18:31;;;;;;;14.77;3.50;;;;;;;;;;5034009;28;21043;-78
2022/06/15 10:21:06;;;;;;;14.43;3.30;;;;;;;;;;5034120;28;20499;-78
2022/06/15 10:23:40;;;;;;;17.00;3.87;;;;;;;;;;5032926;28;20455;-78
2022/06/15 10:26:09;;;;;;;13.53;3.50;;;;;;;;;;5034204;28;20946;-77
2022/06/15 10:28:39;;;;;;;13.70;3.60;;;;;;;;;;5034435;28;20439;-79
2022/06/15 10:31:07;;;;;;;19.23;3.20;;;;;;;;;;5034151;28;20463;-80
2022/06/15 10:33:39;;;;;;;12.80;2.93;;;;;;;;;;5033825;28;20454;-79
2022/06/15 10:36:18;;;;;;;14.20;3.13;;;;;;;;;;5033862;28;20974;-78
2022/06/15 10:38:49;;;;;;;15.57;3.33;;;;;;;;;;5034509;28;20451;-78
2022/06/15 10:44:01;;;;;;;15.80;3.13;;;;;;;;;;5033913;28;20486;-78
2022/06/15 10:46:28;;;;;;;13.53;3.03;;;;;;;;;;5033541;28;20970;-78
2022/06/15 10:48:57;;;;;;;16.33;2.70;;;;;;;;;;5033808;28;20433;-80
2022/06/15 10:51:32;;;;;;;13.40;3.53;;;;;;;;;;5033724;28;20831;-80
2022/06/15 10:54:15;;;;;;;13.70;3.40;;;;;;;;;;5033467;28;20519;-79
2022/06/15 11:02:21;;;;;;;14.50;3.13;;;;;;;;;;5032975;28;20494;-79
2022/06/15 11:04:54;;;;;;;17.87;3.63;;;;;;;;;;5033159;28;20448;-80
2022/06/15 11:07:29;;;;;;;13.97;2.80;;;;;;;;;;5033104;28;20459;-80
2022/06/15 11:10:17;;;;;;;13.13;2.77;;;;;;;;;;5033704;28;20843;-80
2022/06/15 11:12:47;;;;;;;14.50;3.17;;;;;;;;;;5029955;28;20479;-79
2022/06/15 11:18:20;;;;;;;13.77;2.90;;;;;;;;;;5032834;28;20445;-80
2022/06/15 11:20:51;;;;;;;12.90;3.07;;;;;;;;;;5032889;28;20437;-79
2022/06/15 11:23:23;;;;;;;14.93;3.60;;;;;;;;;;5032840;28;20483;-80
2022/06/15 11:25:51;;;;;;;23.10;4.00;;;;;;;;;;5032527;28;20450;-79
2022/06/15 11:28:24;;;;;;;16.00;3.10;;;;;;;;;;5032660;28;20453;-79
2022/06/15 11:30:55;;;;;;;14.63;2.83;;;;;;;;;;5033301;28;20497;-80
2022/06/15 11:33:24;;;;;;;13.70;3.33;;;;;;;;;;5032765;28;20440;-80
2022/06/15 11:35:56;;;;;;;14.73;2.97;;;;;;;;;;5032462;28;20577;-80
2022/06/15 11:38:34;;;;;;;12.70;2.40;;;;;;;;;;5032592;28;20454;-77
2022/06/15 11:41:03;;;;;;;15.53;3.27;;;;;;;;;;5032967;28;20439;-79
2022/06/15 11:43:33;;;;;;;15.30;3.63;;;;;;;;;;5032675;28;20475;-79
2022/06/15 11:46:04;;;;;;;23.23;3.27;;;;;;;;;;5032507;28;20510;-80
2022/06/15 11:48:38;;;;;;;15.07;3.00;;;;;;;;;;5032557;28;20524;-79
2022/06/15 11:51:11;;;;;;;13.60;2.83;;;;;;;;;;5032343;28;20945;-80
2022/06/15 11:53:48;;;;;;;18.63;3.17;;;;;;;;;;5032115;28;20453;-80
2022/06/15 11:56:17;;;;;;;15.03;3.10;;;;;;;;;;5032485;28;20433;-80
2022/06/15 11:58:51;;;;;;;16.40;3.40;;;;;;;;;;5032133;28;20442;-81
2022/06/15 12:01:25;;;;;;;13.40;2.80;;;;;;;;;;5032259;28;20523;-79
2022/06/15 12:04:07;;;;;;;13.90;2.87;;;;;;;;;;5031431;28;20578;-80
2022/06/15 12:06:39;;;;;;;13.70;2.77;;;;;;;;;;5010169;28;20444;-80
2022/06/15 12:09:16;;;;;;;15.37;3.30;;;;;;;;;;5032274;28;20451;-80
2022/06/15 12:14:36;;;;;;;14.40;2.70;;;;;;;;;;5032052;28;20455;-80
2022/06/15 12:17:07;;;;;;;14.37;2.97;;;;;;;;;;5032679;28;20438;-78
2022/06/15 12:19:38;;;;;;;13.90;2.97;;;;;;;;;;5031788;28;20455;-79
2022/06/15 12:22:09;;;;;;;13.83;3.07;;;;;;;;;;5032072;28;20477;-80
2022/06/15 12:24:43;;;;;;;12.87;2.50;;;;;;;;;;5032411;28;20440;-81
2022/06/15 12:27:14;;;;;;;12.77;2.40;;;;;;;;;;5031911;28;20446;-80
2022/06/15 12:29:46;;;;;;;16.10;3.90;;;;;;;;;;5031996;28;20484;-80
2022/06/15 12:32:34;;;;;;;14.40;2.20;;;;;;;;;;5031856;28;20448;-79
2022/06/15 12:35:04;;;;;;;14.73;2.83;;;;;;;;;;5031882;28;20960;-79
2022/06/15 12:37:33;;;;;;;18.40;2.90;;;;;;;;;;5031560;28;20483;-76
2022/06/15 12:40:12;;;;;;;14.50;2.77;;;;;;;;;;5031730;28;20467;-78
2022/06/15 12:42:40;;;;;;;16.70;3.20;;;;;;;;;;5031766;28;21059;-79
2022/06/15 12:45:09;;;;;;;13.00;2.60;;;;;;;;;;5031645;28;20438;-78
2022/06/15 12:47:40;;;;;;;16.97;3.97;;;;;;;;;;5033808;28;20502;-80
2022/06/15 12:50:26;;;;;;;14.03;2.53;;;;;;;;;;5036657;28;20814;-80
2022/06/15 12:52:57;;;;;;;15.83;3.10;;;;;;;;;;5035645;28;20446;-80
2022/06/15 12:55:29;;;;;;;13.40;2.77;;;;;;;;;;5035712;28;20961;-79
2022/06/15 12:57:59;;;;;;;16.00;3.00;;;;;;;;;;5035600;28;20465;-78
2022/06/15 13:00:31;;;;;;;12.87;2.43;;;;;;;;;;5036157;28;20440;-81
2022/06/15 13:03:01;;;;;;;13.60;2.67;;;;;;;;;;5035585;28;20492;-80
2022/06/15 13:05:31;;;;;;;12.77;2.77;;;;;;;;;;5035471;28;20449;-81
2022/06/15 13:08:19;;;;;;;13.80;3.30;;;;;;;;;;5035403;28;20519;-79
2022/06/15 13:11:02;;;;;;;15.53;3.60;;;;;;;;;;5035506;28;20466;-80
2022/06/15 13:13:30;;;;;;;14.03;3.03;;;;;;;;;;5035334;28;20979;-81
2022/06/15 13:15:59;;;;;;;14.40;3.60;;;;;;;;;;5035257;28;20452;-80
2022/06/15 13:18:46;;;;;;;15.80;4.07;;;;;;;;;;5035109;28;20986;-80
2022/06/15 13:21:14;;;;;;;14.40;3.07;;;;;;;;;;5035135;28;20448;-79
2022/06/15 13:23:42;;;;;;;17.13;3.37;;;;;;;;;;5034976;28;20499;-79
2022/06/15 13:26:13;;;;;;;13.33;3.00;;;;;;;;;;5035572;28;20451;-80
2022/06/15 13:28:42;;;;;;;14.07;2.70;;;;;;;;;;5034988;28;20441;-80
2022/06/15 13:31:11;;;;;;;13.40;2.60;;;;;;;;;;5035024;28;20516;-79
2022/06/15 13:33:57;;;;;;;18.70;2.77;;;;;;;;;;5034730;28;20511;-78
2022/06/15 13:36:25;;;;;;;12.17;2.40;;;;;;;;;;5035054;28;20445;-81
2022/06/15 13:38:53;;;;;;;13.00;2.40;;;;;;;;;;5034753;28;20449;-81
2022/06/15 13:41:27;;;;;;;14.57;3.03;;;;;;;;;;5034690;28;20484;-78
2022/06/15 13:44:10;;;;;;;13.50;2.77;;;;;;;;;;5034916;28;20547;-79
2022/06/15 13:46:38;;;;;;;14.07;2.53;;;;;;;;;;5035025;28;20443;-78
2022/06/15 13:49:07;;;;;;;12.90;2.87;;;;;;;;;;5034852;28;20495;-79
2022/06/15 13:51:37;;;;;;;17.90;3.80;;;;;;;;;;5034664;28;20437;-79
2022/06/15 13:54:15;;;;;;;13.63;2.70;;;;;;;;;;5034478;28;20802;-80
2022/06/15 13:56:49;;;;;;;15.33;2.60;;;;;;;;;;5034695;28;20817;-79
2022/06/15 13:59:19;;;;;;;13.60;2.90;;;;;;;;;;5033213;28;20456;-80
2022/06/15 14:01:54;;;;;;;14.90;3.40;;;;;;;;;;5034275;28;20440;-80
2022/06/15 14:04:31;;;;;;;15.23;2.83;;;;;;;;;;5034465;28;20679;-78
2022/06/15 14:07:04;;;;;;;15.20;2.40;;;;;;;;;;5034363;28;20448;-78
2022/06/15 14:09:38;;;;;;;14.23;2.50;;;;;;;;;;5033917;28;20494;-78
2022/06/15 14:12:22;;;;;;;13.67;2.60;;;;;;;;;;5034003;28;20476;-79
2022/06/15 14:14:56;;;;;;;17.90;3.00;;;;;;;;;;5034282;28;20425;-80
2022/06/15 14:17:38;;;;;;;14.77;3.00;;;;;;;;;;5034374;28;20447;-79
2022/06/15 14:20:08;;;;;;;14.20;2.97;;;;;;;;;;5032967;28;20538;-80
2022/06/15 14:22:45;;;;;;;15.33;3.10;;;;;;;;;;5034416;28;20558;-80
2022/06/15 14:25:16;;;;;;;12.60;2.63;;;;;;;;;;5034024;28;20465;-78
2022/06/15 14:27:50;;;;;;;18.20;3.50;;;;;;;;;;5033789;28;20527;-78
2022/06/15 14:30:23;;;;;;;13.13;2.53;;;;;;;;;;5033966;28;20446;-78
2022/06/15 14:32:57;;;;;;;13.83;2.80;;;;;;;;;;5034745;28;20843;-80
2022/06/15 14:35:25;;;;;;;16.60;2.87;;;;;;;;;;5033636;28;20448;-80
2022/06/15 14:37:54;;;;;;;14.37;3.43;;;;;;;;;;5032911;28;20567;-77
2022/06/15 14:40:33;;;;;;;14.40;3.30;;;;;;;;;;5050538;28;20545;-76
2022/06/15 14:43:03;;;;;;;13.87;2.97;;;;;;;;;;5057299;28;20482;-82
2022/06/15 14:45:32;;;;;;;14.40;2.67;;;;;;;;;;5060370;28;20479;-81
2022/06/15 14:48:02;;;;;;;16.13;3.40;;;;;;;;;;5064221;28;21000;-77
2022/06/15 14:50:30;;;;;;;13.10;3.20;;;;;;;;;;5065132;28;20560;-75
2022/06/15 14:53:06;;;;;;;12.43;2.60;;;;;;;;;;5046226;28;20480;-77
2022/06/15 14:55:36;;;;;;;16.97;3.67;;;;;;;;;;5063666;28;20483;-77
2022/06/15 14:58:16;;;;;;;13.97;3.37;;;;;;;;;;5069379;28;20478;-80
2022/06/15 15:00:44;;;;;;;14.83;2.57;;;;;;;;;;5073031;28;20485;-79
2022/06/15 15:03:24;;;;;;;14.37;2.70;;;;;;;;;;5072778;28;20554;-81
2022/06/15 15:05:52;;;;;;;22.83;3.03;;;;;;;;;;5072649;28;20476;-78
2022/06/15 15:08:29;;;;;;;13.67;2.93;;;;;;;;;;5072535;28;20469;-78
2022/06/15 15:10:58;;;;;;;16.37;2.97;;;;;;;;;;5072582;28;20490;-77